sensor_id;sensor_type;location;lat;lon;timestamp;P1;durP1;ratioP1;P2;durP2;ratioP2
14348;SDS011;7258;50.376;8.742;2023-02-15T00:01:44;79.20;;;26.30;;
14348;SDS011;7258;50.376;8.742;2023-02-15T00:03:48;69.10;;;26.07;;
14348;SDS011;7258;50.376;8.742;2023-02-15T00:05:51;75.63;;;26.97;;
14348;SDS011;7258;50.376;8.742;2023-02-15T00:07:54;83.27;;;26.47;;
14348;SDS011;7258;50.376;8.742;2023-02-15T00:09:58;60.50;;;25.30;;
14348;SDS011;7258;50.376;8.742;2023-02-15T00:12:01;67.20;;;25.70;;
14348;SDS011;7258;50.376;8.742;2023-02-15T00:14:04;67.33;;;25.93;;
14348;SDS011;7258;50.376;8.742;2023-02-15T00:16:09;102.47;;;28.60;;
14348;SDS011;7258;50.376;8.742;2023-02-15T00:18:13;79.90;;;26.67;;
14348;SDS011;7258;50.376;8.742;2023-02-15T00:20:16;66.47;;;25.50;;
14348;SDS011;7258;50.376;8.742;2023-02-15T00:22:20;58.00;;;26.37;;
14348;SDS011;7258;50.376;8.742;2023-02-15T00:24:23;58.87;;;26.47;;
14348;SDS011;7258;50.376;8.742;2023-02-15T00:26:27;59.60;;;25.87;;
14348;SDS011;7258;50.376;8.742;2023-02-15T00:28:30;50.87;;;26.00;;
14348;SDS011;7258;50.376;8.742;2023-02-15T00:30:33;97.00;;;27.73;;
14348;SDS011;7258;50.376;8.742;2023-02-15T00:32:36;62.23;;;27.27;;
14348;SDS011;7258;50.376;8.742;2023-02-15T00:34:41;62.83;;;26.50;;
14348;SDS011;7258;50.376;8.742;2023-02-15T00:36:45;92.17;;;27.17;;
14348;SDS011;7258;50.376;8.742;2023-02-15T00:38:48;60.27;;;26.63;;
14348;SDS011;7258;50.376;8.742;2023-02-15T00:40:52;58.50;;;26.13;;
14348;SDS011;7258;50.376;8.742;2023-02-15T00:42:56;54.70;;;26.20;;
14348;SDS011;7258;50.376;8.742;2023-02-15T00:44:59;55.10;;;26.33;;
14348;SDS011;7258;50.376;8.742;2023-02-15T00:47:02;60.63;;;27.23;;
14348;SDS011;7258;50.376;8.742;2023-02-15T00:49:05;50.27;;;26.00;;
14348;SDS011;7258;50.376;8.742;2023-02-15T00:51:08;53.53;;;25.20;;
14348;SDS011;7258;50.376;8.742;2023-02-15T00:53:11;55.20;;;26.53;;
14348;SDS011;7258;50.376;8.742;2023-02-15T00:55:15;58.17;;;25.73;;
14348;SDS011;7258;50.376;8.742;2023-02-15T00:57:17;48.73;;;25.87;;
14348;SDS011;7258;50.376;8.742;2023-02-15T00:59:22;120.77;;;28.03;;
14348;SDS011;7258;50.376;8.742;2023-02-15T01:01:24;76.23;;;26.57;;
14348;SDS011;7258;50.376;8.742;2023-02-15T01:03:27;51.97;;;26.03;;
14348;SDS011;7258;50.376;8.742;2023-02-15T01:05:30;59.07;;;25.60;;
14348;SDS011;7258;50.376;8.742;2023-02-15T01:07:34;53.70;;;24.90;;
14348;SDS011;7258;50.376;8.742;2023-02-15T01:09:37;58.10;;;27.03;;
14348;SDS011;7258;50.376;8.742;2023-02-15T01:11:40;53.03;;;26.87;;
14348;SDS011;7258;50.376;8.742;2023-02-15T01:13:43;58.70;;;25.77;;
14348;SDS011;7258;50.376;8.742;2023-02-15T01:15:51;61.40;;;27.33;;
14348;SDS011;7258;50.376;8.742;2023-02-15T01:17:55;90.97;;;28.50;;
14348;SDS011;7258;50.376;8.742;2023-02-15T01:19:58;61.93;;;27.70;;
14348;SDS011;7258;50.376;8.742;2023-02-15T01:22:01;70.27;;;29.07;;
14348;SDS011;7258;50.376;8.742;2023-02-15T01:24:04;54.73;;;28.53;;
14348;SDS011;7258;50.376;8.742;2023-02-15T01:26:07;53.07;;;27.70;;
14348;SDS011;7258;50.376;8.742;2023-02-15T01:28:10;65.00;;;27.70;;
14348;SDS011;7258;50.376;8.742;2023-02-15T01:30:13;97.27;;;28.90;;
14348;SDS011;7258;50.376;8.742;2023-02-15T01:32:19;63.47;;;28.17;;
14348;SDS011;7258;50.376;8.742;2023-02-15T01:34:22;64.57;;;28.57;;
14348;SDS011;7258;50.376;8.742;2023-02-15T01:36:24;71.90;;;29.60;;
14348;SDS011;7258;50.376;8.742;2023-02-15T01:38:27;61.80;;;28.67;;
14348;SDS011;7258;50.376;8.742;2023-02-15T01:40:30;60.53;;;28.40;;
14348;SDS011;7258;50.376;8.742;2023-02-15T01:42:33;64.67;;;29.97;;
14348;SDS011;7258;50.376;8.742;2023-02-15T01:44:47;66.43;;;29.50;;
14348;SDS011;7258;50.376;8.742;2023-02-15T01:46:51;60.63;;;28.93;;
14348;SDS011;7258;50.376;8.742;2023-02-15T01:48:58;59.77;;;28.90;;
14348;SDS011;7258;50.376;8.742;2023-02-15T01:51:05;90.53;;;29.90;;
14348;SDS011;7258;50.376;8.742;2023-02-15T01:53:08;84.83;;;28.23;;
14348;SDS011;7258;50.376;8.742;2023-02-15T01:55:15;70.80;;;28.50;;
14348;SDS011;7258;50.376;8.742;2023-02-15T01:57:19;55.57;;;25.00;;
14348;SDS011;7258;50.376;8.742;2023-02-15T01:59:26;53.30;;;24.73;;
14348;SDS011;7258;50.376;8.742;2023-02-15T02:01:29;67.77;;;25.40;;
14348;SDS011;7258;50.376;8.742;2023-02-15T02:03:35;76.33;;;27.07;;
14348;SDS011;7258;50.376;8.742;2023-02-15T02:05:46;77.50;;;26.73;;
14348;SDS011;7258;50.376;8.742;2023-02-15T02:07:50;62.53;;;26.20;;
14348;SDS011;7258;50.376;8.742;2023-02-15T02:09:57;59.23;;;25.80;;
14348;SDS011;7258;50.376;8.742;2023-02-15T02:12:00;59.50;;;25.30;;
14348;SDS011;7258;50.376;8.742;2023-02-15T02:14:04;91.07;;;28.30;;
14348;SDS011;7258;50.376;8.742;2023-02-15T02:16:08;77.07;;;27.83;;
14348;SDS011;7258;50.376;8.742;2023-02-15T02:18:20;63.83;;;26.77;;
14348;SDS011;7258;50.376;8.742;2023-02-15T02:20:43;55.80;;;26.77;;
14348;SDS011;7258;50.376;8.742;2023-02-15T02:23:05;65.30;;;25.20;;
14348;SDS011;7258;50.376;8.742;2023-02-15T02:25:31;76.10;;;26.93;;
14348;SDS011;7258;50.376;8.742;2023-02-15T02:27:56;56.37;;;25.90;;
14348;SDS011;7258;50.376;8.742;2023-02-15T02:30:29;48.80;;;25.37;;
14348;SDS011;7258;50.376;8.742;2023-02-15T02:35:27;55.07;;;26.67;;
14348;SDS011;7258;50.376;8.742;2023-02-15T02:37:37;56.17;;;26.70;;
14348;SDS011;7258;50.376;8.742;2023-02-15T02:39:49;63.37;;;28.00;;
14348;SDS011;7258;50.376;8.742;2023-02-15T02:41:59;66.77;;;28.10;;
14348;SDS011;7258;50.376;8.742;2023-02-15T02:44:06;57.10;;;26.80;;
14348;SDS011;7258;50.376;8.742;2023-02-15T02:46:16;52.27;;;26.97;;
14348;SDS011;7258;50.376;8.742;2023-02-15T02:48:24;62.63;;;30.33;;
14348;SDS011;7258;50.376;8.742;2023-02-15T02:50:30;78.87;;;29.80;;
14348;SDS011;7258;50.376;8.742;2023-02-15T02:52:38;54.50;;;28.30;;
14348;SDS011;7258;50.376;8.742;2023-02-15T02:54:43;55.20;;;29.40;;
14348;SDS011;7258;50.376;8.742;2023-02-15T02:56:46;55.63;;;29.30;;
14348;SDS011;7258;50.376;8.742;2023-02-15T02:58:51;59.93;;;28.93;;
14348;SDS011;7258;50.376;8.742;2023-02-15T03:01:02;61.47;;;30.60;;
14348;SDS011;7258;50.376;8.742;2023-02-15T03:03:11;58.13;;;30.67;;
14348;SDS011;7258;50.376;8.742;2023-02-15T03:05:19;61.70;;;31.63;;
14348;SDS011;7258;50.376;8.742;2023-02-15T03:07:27;59.60;;;30.20;;
14348;SDS011;7258;50.376;8.742;2023-02-15T03:09:33;59.80;;;29.63;;
14348;SDS011;7258;50.376;8.742;2023-02-15T03:11:43;61.20;;;30.57;;
14348;SDS011;7258;50.376;8.742;2023-02-15T03:13:48;61.10;;;30.07;;
14348;SDS011;7258;50.376;8.742;2023-02-15T03:15:52;64.90;;;31.13;;
14348;SDS011;7258;50.376;8.742;2023-02-15T03:18:13;64.63;;;30.57;;
14348;SDS011;7258;50.376;8.742;2023-02-15T03:20:18;70.73;;;33.07;;
14348;SDS011;7258;50.376;8.742;2023-02-15T03:22:28;66.80;;;31.13;;
14348;SDS011;7258;50.376;8.742;2023-02-15T03:24:37;67.70;;;31.73;;
14348;SDS011;7258;50.376;8.742;2023-02-15T03:26:45;67.90;;;32.60;;
14348;SDS011;7258;50.376;8.742;2023-02-15T03:28:50;74.43;;;30.57;;
14348;SDS011;7258;50.376;8.742;2023-02-15T03:30:58;67.97;;;32.63;;
14348;SDS011;7258;50.376;8.742;2023-02-15T03:33:05;64.83;;;32.13;;
14348;SDS011;7258;50.376;8.742;2023-02-15T03:35:09;75.13;;;33.00;;
14348;SDS011;7258;50.376;8.742;2023-02-15T03:37:15;70.63;;;32.47;;
14348;SDS011;7258;50.376;8.742;2023-02-15T03:39:26;61.43;;;32.20;;
14348;SDS011;7258;50.376;8.742;2023-02-15T03:41:37;62.87;;;30.13;;
14348;SDS011;7258;50.376;8.742;2023-02-15T03:43:45;71.23;;;32.93;;
14348;SDS011;7258;50.376;8.742;2023-02-15T03:45:55;60.53;;;29.47;;
14348;SDS011;7258;50.376;8.742;2023-02-15T03:48:02;66.07;;;29.97;;
14348;SDS011;7258;50.376;8.742;2023-02-15T03:50:10;69.00;;;31.50;;
14348;SDS011;7258;50.376;8.742;2023-02-15T03:52:32;61.10;;;30.53;;
14348;SDS011;7258;50.376;8.742;2023-02-15T03:54:37;64.63;;;30.60;;
14348;SDS011;7258;50.376;8.742;2023-02-15T03:56:43;64.50;;;31.77;;
14348;SDS011;7258;50.376;8.742;2023-02-15T03:59:07;64.17;;;31.97;;
14348;SDS011;7258;50.376;8.742;2023-02-15T04:01:32;63.00;;;31.57;;
14348;SDS011;7258;50.376;8.742;2023-02-15T04:03:56;66.30;;;31.57;;
14348;SDS011;7258;50.376;8.742;2023-02-15T04:06:03;68.00;;;33.17;;
14348;SDS011;7258;50.376;8.742;2023-02-15T04:08:08;61.67;;;30.50;;
14348;SDS011;7258;50.376;8.742;2023-02-15T04:10:12;68.93;;;31.83;;
14348;SDS011;7258;50.376;8.742;2023-02-15T04:12:32;69.80;;;32.63;;
14348;SDS011;7258;50.376;8.742;2023-02-15T04:14:35;70.93;;;32.87;;
14348;SDS011;7258;50.376;8.742;2023-02-15T04:16:55;59.63;;;31.63;;
14348;SDS011;7258;50.376;8.742;2023-02-15T04:18:58;74.37;;;33.23;;
14348;SDS011;7258;50.376;8.742;2023-02-15T04:21:19;71.63;;;34.03;;
14348;SDS011;7258;50.376;8.742;2023-02-15T04:23:42;65.60;;;32.60;;
14348;SDS011;7258;50.376;8.742;2023-02-15T04:26:03;70.67;;;32.73;;
14348;SDS011;7258;50.376;8.742;2023-02-15T04:28:06;74.37;;;33.83;;
14348;SDS011;7258;50.376;8.742;2023-02-15T04:30:10;78.07;;;35.13;;
14348;SDS011;7258;50.376;8.742;2023-02-15T04:32:14;69.93;;;33.07;;
14348;SDS011;7258;50.376;8.742;2023-02-15T04:34:17;73.60;;;32.50;;
14348;SDS011;7258;50.376;8.742;2023-02-15T04:36:20;77.00;;;35.33;;
14348;SDS011;7258;50.376;8.742;2023-02-15T04:38:23;80.03;;;35.47;;
14348;SDS011;7258;50.376;8.742;2023-02-15T04:40:28;73.30;;;34.20;;
14348;SDS011;7258;50.376;8.742;2023-02-15T04:42:31;77.97;;;33.93;;
14348;SDS011;7258;50.376;8.742;2023-02-15T04:44:34;71.97;;;33.50;;
14348;SDS011;7258;50.376;8.742;2023-02-15T04:46:37;78.77;;;35.20;;
14348;SDS011;7258;50.376;8.742;2023-02-15T04:48:40;74.43;;;35.37;;
14348;SDS011;7258;50.376;8.742;2023-02-15T04:50:43;75.70;;;34.57;;
14348;SDS011;7258;50.376;8.742;2023-02-15T04:52:46;72.90;;;34.73;;
14348;SDS011;7258;50.376;8.742;2023-02-15T04:54:49;82.73;;;36.17;;
14348;SDS011;7258;50.376;8.742;2023-02-15T04:56:54;74.73;;;34.37;;
14348;SDS011;7258;50.376;8.742;2023-02-15T04:58:56;74.80;;;34.70;;
14348;SDS011;7258;50.376;8.742;2023-02-15T05:00:59;81.27;;;35.67;;
14348;SDS011;7258;50.376;8.742;2023-02-15T05:03:02;84.40;;;36.33;;
14348;SDS011;7258;50.376;8.742;2023-02-15T05:05:05;88.97;;;36.97;;
14348;SDS011;7258;50.376;8.742;2023-02-15T05:07:14;79.63;;;37.83;;
14348;SDS011;7258;50.376;8.742;2023-02-15T05:09:16;86.03;;;35.77;;
14348;SDS011;7258;50.376;8.742;2023-02-15T05:11:19;100.97;;;38.10;;
14348;SDS011;7258;50.376;8.742;2023-02-15T05:13:24;83.77;;;36.73;;
14348;SDS011;7258;50.376;8.742;2023-02-15T05:15:27;85.77;;;36.87;;
14348;SDS011;7258;50.376;8.742;2023-02-15T05:17:30;80.67;;;35.57;;
14348;SDS011;7258;50.376;8.742;2023-02-15T05:19:32;83.43;;;35.60;;
14348;SDS011;7258;50.376;8.742;2023-02-15T05:21:38;83.67;;;36.43;;
14348;SDS011;7258;50.376;8.742;2023-02-15T05:23:41;72.83;;;35.63;;
14348;SDS011;7258;50.376;8.742;2023-02-15T05:25:47;88.63;;;36.70;;
14348;SDS011;7258;50.376;8.742;2023-02-15T05:28:08;76.20;;;34.07;;
14348;SDS011;7258;50.376;8.742;2023-02-15T05:30:24;90.53;;;35.50;;
14348;SDS011;7258;50.376;8.742;2023-02-15T05:32:27;88.57;;;36.53;;
14348;SDS011;7258;50.376;8.742;2023-02-15T05:34:30;80.60;;;36.07;;
14348;SDS011;7258;50.376;8.742;2023-02-15T05:36:33;76.93;;;34.23;;
14348;SDS011;7258;50.376;8.742;2023-02-15T05:38:37;78.70;;;35.97;;
14348;SDS011;7258;50.376;8.742;2023-02-15T05:40:40;75.07;;;34.67;;
14348;SDS011;7258;50.376;8.742;2023-02-15T05:42:43;76.77;;;36.23;;
14348;SDS011;7258;50.376;8.742;2023-02-15T05:44:46;88.53;;;37.23;;
14348;SDS011;7258;50.376;8.742;2023-02-15T05:46:50;76.43;;;36.43;;
14348;SDS011;7258;50.376;8.742;2023-02-15T05:48:54;83.97;;;36.70;;
14348;SDS011;7258;50.376;8.742;2023-02-15T05:50:58;81.87;;;38.57;;
14348;SDS011;7258;50.376;8.742;2023-02-15T05:53:01;81.50;;;38.07;;
14348;SDS011;7258;50.376;8.742;2023-02-15T05:55:05;84.23;;;37.43;;
14348;SDS011;7258;50.376;8.742;2023-02-15T05:57:09;82.37;;;38.97;;
14348;SDS011;7258;50.376;8.742;2023-02-15T05:59:12;77.73;;;36.77;;
14348;SDS011;7258;50.376;8.742;2023-02-15T06:01:16;85.57;;;37.43;;
14348;SDS011;7258;50.376;8.742;2023-02-15T06:03:24;90.03;;;38.73;;
14348;SDS011;7258;50.376;8.742;2023-02-15T06:05:29;81.70;;;36.10;;
14348;SDS011;7258;50.376;8.742;2023-02-15T06:07:32;85.30;;;37.77;;
14348;SDS011;7258;50.376;8.742;2023-02-15T06:09:35;88.63;;;37.37;;
14348;SDS011;7258;50.376;8.742;2023-02-15T06:11:38;78.80;;;34.70;;
14348;SDS011;7258;50.376;8.742;2023-02-15T06:13:41;84.37;;;37.70;;
14348;SDS011;7258;50.376;8.742;2023-02-15T06:15:44;81.77;;;36.87;;
14348;SDS011;7258;50.376;8.742;2023-02-15T06:17:47;79.97;;;36.23;;
14348;SDS011;7258;50.376;8.742;2023-02-15T06:19:51;80.87;;;37.40;;
14348;SDS011;7258;50.376;8.742;2023-02-15T06:21:54;84.87;;;38.53;;
14348;SDS011;7258;50.376;8.742;2023-02-15T06:23:57;79.20;;;37.20;;
14348;SDS011;7258;50.376;8.742;2023-02-15T06:26:00;78.70;;;37.57;;
14348;SDS011;7258;50.376;8.742;2023-02-15T06:28:04;78.27;;;36.90;;
14348;SDS011;7258;50.376;8.742;2023-02-15T06:30:07;92.87;;;40.40;;
14348;SDS011;7258;50.376;8.742;2023-02-15T06:32:11;84.53;;;37.87;;
14348;SDS011;7258;50.376;8.742;2023-02-15T06:34:14;78.30;;;37.77;;
14348;SDS011;7258;50.376;8.742;2023-02-15T06:36:19;80.43;;;37.70;;
14348;SDS011;7258;50.376;8.742;2023-02-15T06:38:22;83.87;;;38.07;;
14348;SDS011;7258;50.376;8.742;2023-02-15T06:40:25;79.03;;;36.90;;
14348;SDS011;7258;50.376;8.742;2023-02-15T06:42:28;79.83;;;37.13;;
14348;SDS011;7258;50.376;8.742;2023-02-15T06:44:32;83.07;;;37.60;;
14348;SDS011;7258;50.376;8.742;2023-02-15T06:46:35;85.90;;;38.77;;
14348;SDS011;7258;50.376;8.742;2023-02-15T06:48:38;92.37;;;40.50;;
14348;SDS011;7258;50.376;8.742;2023-02-15T06:53:10;89.83;;;38.03;;
14348;SDS011;7258;50.376;8.742;2023-02-15T06:55:14;88.73;;;39.23;;
14348;SDS011;7258;50.376;8.742;2023-02-15T06:57:17;93.70;;;40.13;;
14348;SDS011;7258;50.376;8.742;2023-02-15T06:59:20;85.53;;;37.47;;
14348;SDS011;7258;50.376;8.742;2023-02-15T07:01:23;84.53;;;38.77;;
14348;SDS011;7258;50.376;8.742;2023-02-15T07:03:26;94.90;;;40.57;;
14348;SDS011;7258;50.376;8.742;2023-02-15T07:05:33;100.10;;;40.60;;
14348;SDS011;7258;50.376;8.742;2023-02-15T07:07:36;107.17;;;41.00;;
14348;SDS011;7258;50.376;8.742;2023-02-15T07:09:41;100.80;;;40.47;;
14348;SDS011;7258;50.376;8.742;2023-02-15T07:11:44;100.00;;;43.03;;
14348;SDS011;7258;50.376;8.742;2023-02-15T07:14:04;108.80;;;39.80;;
14348;SDS011;7258;50.376;8.742;2023-02-15T07:16:07;100.10;;;38.97;;
14348;SDS011;7258;50.376;8.742;2023-02-15T07:18:11;117.17;;;42.27;;
14348;SDS011;7258;50.376;8.742;2023-02-15T07:20:15;106.43;;;43.20;;
14348;SDS011;7258;50.376;8.742;2023-02-15T07:22:20;118.83;;;46.13;;
14348;SDS011;7258;50.376;8.742;2023-02-15T07:24:23;116.70;;;47.80;;
14348;SDS011;7258;50.376;8.742;2023-02-15T07:26:27;123.67;;;44.77;;
14348;SDS011;7258;50.376;8.742;2023-02-15T07:28:34;124.53;;;46.20;;
14348;SDS011;7258;50.376;8.742;2023-02-15T07:30:37;126.57;;;48.93;;
14348;SDS011;7258;50.376;8.742;2023-02-15T07:32:41;126.87;;;53.33;;
14348;SDS011;7258;50.376;8.742;2023-02-15T07:34:59;137.07;;;49.47;;
14348;SDS011;7258;50.376;8.742;2023-02-15T07:37:02;135.67;;;46.80;;
14348;SDS011;7258;50.376;8.742;2023-02-15T07:39:05;135.43;;;48.17;;
14348;SDS011;7258;50.376;8.742;2023-02-15T07:41:09;132.07;;;50.80;;
14348;SDS011;7258;50.376;8.742;2023-02-15T07:43:14;128.63;;;53.57;;
14348;SDS011;7258;50.376;8.742;2023-02-15T07:45:18;131.10;;;47.43;;
14348;SDS011;7258;50.376;8.742;2023-02-15T07:47:21;124.67;;;46.20;;
14348;SDS011;7258;50.376;8.742;2023-02-15T07:49:24;136.90;;;47.50;;
14348;SDS011;7258;50.376;8.742;2023-02-15T07:53:58;113.33;;;43.87;;
14348;SDS011;7258;50.376;8.742;2023-02-15T07:56:02;123.53;;;45.83;;
14348;SDS011;7258;50.376;8.742;2023-02-15T07:58:07;152.87;;;46.90;;
14348;SDS011;7258;50.376;8.742;2023-02-15T08:02:18;134.53;;;47.43;;
14348;SDS011;7258;50.376;8.742;2023-02-15T08:04:22;156.33;;;48.83;;
14348;SDS011;7258;50.376;8.742;2023-02-15T08:06:27;135.83;;;49.07;;
14348;SDS011;7258;50.376;8.742;2023-02-15T08:08:32;136.40;;;47.33;;
14348;SDS011;7258;50.376;8.742;2023-02-15T08:10:36;145.43;;;47.50;;
14348;SDS011;7258;50.376;8.742;2023-02-15T08:13:12;133.63;;;46.10;;
14348;SDS011;7258;50.376;8.742;2023-02-15T08:15:16;133.10;;;47.83;;
14348;SDS011;7258;50.376;8.742;2023-02-15T08:17:19;124.70;;;47.10;;
14348;SDS011;7258;50.376;8.742;2023-02-15T08:19:25;135.33;;;48.33;;
14348;SDS011;7258;50.376;8.742;2023-02-15T08:21:30;130.67;;;48.00;;
14348;SDS011;7258;50.376;8.742;2023-02-15T08:23:34;132.87;;;47.90;;
14348;SDS011;7258;50.376;8.742;2023-02-15T08:25:37;133.57;;;48.50;;
14348;SDS011;7258;50.376;8.742;2023-02-15T08:27:40;140.53;;;48.63;;
14348;SDS011;7258;50.376;8.742;2023-02-15T08:29:43;120.20;;;45.43;;
14348;SDS011;7258;50.376;8.742;2023-02-15T08:31:48;128.80;;;45.00;;
14348;SDS011;7258;50.376;8.742;2023-02-15T08:33:53;108.43;;;46.17;;
14348;SDS011;7258;50.376;8.742;2023-02-15T08:36:01;114.80;;;45.43;;
14348;SDS011;7258;50.376;8.742;2023-02-15T08:38:05;105.27;;;41.27;;
14348;SDS011;7258;50.376;8.742;2023-02-15T08:40:09;101.80;;;43.40;;
14348;SDS011;7258;50.376;8.742;2023-02-15T08:42:14;106.67;;;41.47;;
14348;SDS011;7258;50.376;8.742;2023-02-15T08:44:21;101.50;;;42.83;;
14348;SDS011;7258;50.376;8.742;2023-02-15T08:46:26;94.83;;;41.43;;
14348;SDS011;7258;50.376;8.742;2023-02-15T08:48:31;95.90;;;41.43;;
14348;SDS011;7258;50.376;8.742;2023-02-15T08:50:34;103.37;;;41.90;;
14348;SDS011;7258;50.376;8.742;2023-02-15T08:52:38;98.57;;;40.37;;
14348;SDS011;7258;50.376;8.742;2023-02-15T08:54:41;96.80;;;40.03;;
14348;SDS011;7258;50.376;8.742;2023-02-15T08:56:44;83.10;;;40.77;;
14348;SDS011;7258;50.376;8.742;2023-02-15T08:58:47;89.57;;;39.93;;
14348;SDS011;7258;50.376;8.742;2023-02-15T09:00:50;97.03;;;42.90;;
14348;SDS011;7258;50.376;8.742;2023-02-15T09:02:53;96.17;;;40.40;;
14348;SDS011;7258;50.376;8.742;2023-02-15T09:04:58;94.10;;;39.97;;
14348;SDS011;7258;50.376;8.742;2023-02-15T09:07:01;88.40;;;39.47;;
14348;SDS011;7258;50.376;8.742;2023-02-15T09:09:05;98.30;;;41.67;;
14348;SDS011;7258;50.376;8.742;2023-02-15T09:11:09;92.30;;;42.80;;
14348;SDS011;7258;50.376;8.742;2023-02-15T09:13:13;91.43;;;42.53;;
14348;SDS011;7258;50.376;8.742;2023-02-15T09:15:16;90.63;;;40.27;;
14348;SDS011;7258;50.376;8.742;2023-02-15T09:17:19;84.70;;;39.30;;
14348;SDS011;7258;50.376;8.742;2023-02-15T09:19:22;79.57;;;38.93;;
14348;SDS011;7258;50.376;8.742;2023-02-15T09:21:27;77.67;;;37.77;;
14348;SDS011;7258;50.376;8.742;2023-02-15T09:23:30;79.30;;;38.27;;
14348;SDS011;7258;50.376;8.742;2023-02-15T09:25:34;79.47;;;43.37;;
14348;SDS011;7258;50.376;8.742;2023-02-15T09:27:37;80.63;;;38.53;;
14348;SDS011;7258;50.376;8.742;2023-02-15T09:29:40;78.87;;;39.23;;
14348;SDS011;7258;50.376;8.742;2023-02-15T09:31:44;105.07;;;39.73;;
14348;SDS011;7258;50.376;8.742;2023-02-15T09:33:48;101.93;;;39.73;;
14348;SDS011;7258;50.376;8.742;2023-02-15T09:35:51;100.93;;;38.93;;
14348;SDS011;7258;50.376;8.742;2023-02-15T09:37:55;108.90;;;39.53;;
14348;SDS011;7258;50.376;8.742;2023-02-15T09:39:58;97.03;;;38.03;;
14348;SDS011;7258;50.376;8.742;2023-02-15T09:42:08;93.43;;;38.00;;
14348;SDS011;7258;50.376;8.742;2023-02-15T09:44:42;93.00;;;37.17;;
14348;SDS011;7258;50.376;8.742;2023-02-15T09:47:06;71.37;;;36.37;;
14348;SDS011;7258;50.376;8.742;2023-02-15T09:49:22;72.73;;;36.13;;
14348;SDS011;7258;50.376;8.742;2023-02-15T09:51:39;85.87;;;35.63;;
14348;SDS011;7258;50.376;8.742;2023-02-15T09:54:06;78.77;;;35.83;;
14348;SDS011;7258;50.376;8.742;2023-02-15T09:56:19;83.47;;;34.97;;
14348;SDS011;7258;50.376;8.742;2023-02-15T09:58:29;63.87;;;34.80;;
14348;SDS011;7258;50.376;8.742;2023-02-15T10:00:43;66.40;;;33.83;;
14348;SDS011;7258;50.376;8.742;2023-02-15T10:03:02;67.20;;;34.00;;
14348;SDS011;7258;50.376;8.742;2023-02-15T10:05:19;76.10;;;35.17;;
14348;SDS011;7258;50.376;8.742;2023-02-15T10:07:38;69.40;;;33.27;;
14348;SDS011;7258;50.376;8.742;2023-02-15T10:10:02;68.13;;;33.63;;
14348;SDS011;7258;50.376;8.742;2023-02-15T10:12:20;62.67;;;33.10;;
14348;SDS011;7258;50.376;8.742;2023-02-15T10:14:43;61.07;;;32.77;;
14348;SDS011;7258;50.376;8.742;2023-02-15T10:17:03;76.00;;;31.33;;
14348;SDS011;7258;50.376;8.742;2023-02-15T10:19:16;54.33;;;30.03;;
14348;SDS011;7258;50.376;8.742;2023-02-15T10:21:33;55.27;;;29.93;;
14348;SDS011;7258;50.376;8.742;2023-02-15T10:23:50;55.40;;;30.83;;
14348;SDS011;7258;50.376;8.742;2023-02-15T10:26:06;51.67;;;30.00;;
14348;SDS011;7258;50.376;8.742;2023-02-15T10:28:19;43.13;;;28.17;;
14348;SDS011;7258;50.376;8.742;2023-02-15T10:30:26;50.37;;;30.23;;
14348;SDS011;7258;50.376;8.742;2023-02-15T10:32:35;50.73;;;29.63;;
14348;SDS011;7258;50.376;8.742;2023-02-15T10:34:47;46.63;;;29.53;;
14348;SDS011;7258;50.376;8.742;2023-02-15T10:39:41;48.03;;;27.87;;
14348;SDS011;7258;50.376;8.742;2023-02-15T10:41:53;44.47;;;28.30;;
14348;SDS011;7258;50.376;8.742;2023-02-15T10:44:13;44.20;;;28.67;;
14348;SDS011;7258;50.376;8.742;2023-02-15T10:49:17;43.03;;;27.47;;
14348;SDS011;7258;50.376;8.742;2023-02-15T10:51:35;43.80;;;28.63;;
14348;SDS011;7258;50.376;8.742;2023-02-15T10:53:59;41.50;;;27.63;;
14348;SDS011;7258;50.376;8.742;2023-02-15T10:56:12;45.30;;;29.57;;
14348;SDS011;7258;50.376;8.742;2023-02-15T10:58:27;46.10;;;27.63;;
14348;SDS011;7258;50.376;8.742;2023-02-15T11:00:41;45.33;;;28.37;;
14348;SDS011;7258;50.376;8.742;2023-02-15T11:02:59;42.07;;;29.20;;
14348;SDS011;7258;50.376;8.742;2023-02-15T11:05:26;43.43;;;28.47;;
14348;SDS011;7258;50.376;8.742;2023-02-15T11:07:38;41.73;;;28.87;;
14348;SDS011;7258;50.376;8.742;2023-02-15T11:09:44;42.73;;;28.30;;
14348;SDS011;7258;50.376;8.742;2023-02-15T11:11:51;39.97;;;27.50;;
14348;SDS011;7258;50.376;8.742;2023-02-15T11:13:58;40.40;;;29.10;;
14348;SDS011;7258;50.376;8.742;2023-02-15T11:16:05;37.40;;;27.00;;
14348;SDS011;7258;50.376;8.742;2023-02-15T11:18:14;34.13;;;25.10;;
14348;SDS011;7258;50.376;8.742;2023-02-15T11:20:24;38.37;;;26.20;;
14348;SDS011;7258;50.376;8.742;2023-02-15T11:22:31;45.07;;;34.33;;
14348;SDS011;7258;50.376;8.742;2023-02-15T11:24:37;39.23;;;27.77;;
14348;SDS011;7258;50.376;8.742;2023-02-15T11:26:44;40.53;;;29.17;;
14348;SDS011;7258;50.376;8.742;2023-02-15T11:28:52;44.30;;;34.23;;
14348;SDS011;7258;50.376;8.742;2023-02-15T11:31:01;36.37;;;26.97;;
14348;SDS011;7258;50.376;8.742;2023-02-15T11:33:15;45.57;;;31.90;;
14348;SDS011;7258;50.376;8.742;2023-02-15T11:35:25;45.73;;;33.17;;
14348;SDS011;7258;50.376;8.742;2023-02-15T11:37:32;39.37;;;29.93;;
14348;SDS011;7258;50.376;8.742;2023-02-15T11:39:38;38.53;;;28.50;;
14348;SDS011;7258;50.376;8.742;2023-02-15T11:41:44;42.37;;;30.90;;
14348;SDS011;7258;50.376;8.742;2023-02-15T11:43:54;31.67;;;25.43;;
14348;SDS011;7258;50.376;8.742;2023-02-15T11:46:02;34.83;;;28.23;;
14348;SDS011;7258;50.376;8.742;2023-02-15T11:48:08;34.17;;;26.07;;
14348;SDS011;7258;50.376;8.742;2023-02-15T11:50:14;37.83;;;28.33;;
14348;SDS011;7258;50.376;8.742;2023-02-15T11:52:27;42.97;;;32.47;;
14348;SDS011;7258;50.376;8.742;2023-02-15T11:54:31;40.37;;;30.33;;
14348;SDS011;7258;50.376;8.742;2023-02-15T11:56:38;36.90;;;26.97;;
14348;SDS011;7258;50.376;8.742;2023-02-15T11:58:41;42.93;;;32.47;;
14348;SDS011;7258;50.376;8.742;2023-02-15T12:00:54;43.03;;;32.80;;
14348;SDS011;7258;50.376;8.742;2023-02-15T12:03:13;34.50;;;26.53;;
14348;SDS011;7258;50.376;8.742;2023-02-15T12:05:23;38.23;;;27.80;;
14348;SDS011;7258;50.376;8.742;2023-02-15T12:07:28;38.20;;;29.23;;
14348;SDS011;7258;50.376;8.742;2023-02-15T12:09:38;40.27;;;30.07;;
14348;SDS011;7258;50.376;8.742;2023-02-15T12:11:51;41.90;;;32.07;;
14348;SDS011;7258;50.376;8.742;2023-02-15T12:13:55;45.13;;;32.13;;
14348;SDS011;7258;50.376;8.742;2023-02-15T12:16:04;39.87;;;29.10;;
14348;SDS011;7258;50.376;8.742;2023-02-15T12:18:19;42.53;;;29.27;;
14348;SDS011;7258;50.376;8.742;2023-02-15T12:20:31;46.03;;;30.73;;
14348;SDS011;7258;50.376;8.742;2023-02-15T12:22:35;44.97;;;32.70;;
14348;SDS011;7258;50.376;8.742;2023-02-15T12:24:43;43.33;;;31.23;;
14348;SDS011;7258;50.376;8.742;2023-02-15T12:26:55;42.10;;;29.40;;
14348;SDS011;7258;50.376;8.742;2023-02-15T12:29:01;40.33;;;29.03;;
14348;SDS011;7258;50.376;8.742;2023-02-15T12:31:18;45.63;;;32.20;;
14348;SDS011;7258;50.376;8.742;2023-02-15T12:33:27;48.57;;;32.33;;
14348;SDS011;7258;50.376;8.742;2023-02-15T12:35:33;43.47;;;31.13;;
14348;SDS011;7258;50.376;8.742;2023-02-15T12:37:39;47.27;;;34.00;;
14348;SDS011;7258;50.376;8.742;2023-02-15T12:39:54;41.70;;;29.97;;
14348;SDS011;7258;50.376;8.742;2023-02-15T12:42:00;41.50;;;31.50;;
14348;SDS011;7258;50.376;8.742;2023-02-15T12:44:06;38.87;;;30.00;;
14348;SDS011;7258;50.376;8.742;2023-02-15T12:46:21;36.50;;;27.10;;
14348;SDS011;7258;50.376;8.742;2023-02-15T12:48:26;39.53;;;28.87;;
14348;SDS011;7258;50.376;8.742;2023-02-15T12:50:30;39.80;;;29.77;;